createdAt,value
2017-11-21T00:00:19.683Z,1002.26
2017-11-21T00:01:19.586Z,1002.29
2017-11-21T00:02:19.578Z,1002.26
2017-11-21T00:03:19.569Z,1002.27
2017-11-21T00:04:19.564Z,1002.23
2017-11-21T00:05:19.549Z,1002.23
2017-11-21T00:06:19.542Z,1002.20
2017-11-21T00:07:19.536Z,1002.27
2017-11-21T00:08:19.524Z,1002.30
2017-11-21T00:09:19.516Z,1002.28
2017-11-21T00:10:19.507Z,1002.28
2017-11-21T00:11:19.523Z,1002.33
2017-11-21T00:12:19.489Z,1002.30
2017-11-21T00:13:19.490Z,1002.32
2017-11-21T00:14:19.472Z,1002.33
2017-11-21T00:15:19.462Z,1002.30
2017-11-21T00:16:19.459Z,1002.29
2017-11-21T00:17:19.449Z,1002.25
2017-11-21T00:18:19.436Z,1002.30
2017-11-21T00:19:19.426Z,1002.29
2017-11-21T00:20:19.429Z,1002.27
2017-11-21T00:21:19.410Z,1002.25
2017-11-21T00:22:19.401Z,1002.20
2017-11-21T00:23:19.397Z,1002.20
2017-11-21T00:24:19.400Z,1002.21
2017-11-21T00:25:19.380Z,1002.24
2017-11-21T00:26:19.369Z,1002.24
2017-11-21T00:27:19.358Z,1002.22
2017-11-21T00:28:19.347Z,1002.25
2017-11-21T00:29:19.344Z,1002.29
2017-11-21T00:30:19.336Z,1002.27
2017-11-21T00:31:19.352Z,1002.24
2017-11-21T00:32:19.325Z,1002.29
2017-11-21T00:33:19.306Z,1002.26
2017-11-21T00:34:19.296Z,1002.27
2017-11-21T00:35:19.288Z,1002.29
2017-11-21T00:36:19.277Z,1002.26
2017-11-21T00:37:19.273Z,1002.25
2017-11-21T00:38:19.260Z,1002.28
2017-11-21T00:39:19.251Z,1002.30
2017-11-21T00:40:19.246Z,1002.31
2017-11-21T00:41:19.239Z,1002.34
2017-11-21T00:42:19.228Z,1002.38
2017-11-21T00:43:19.228Z,1002.33
2017-11-21T00:44:19.212Z,1002.34
2017-11-21T00:45:19.203Z,1002.36
2017-11-21T00:46:19.192Z,1002.39
2017-11-21T00:47:19.180Z,1002.40
2017-11-21T00:48:19.175Z,1002.45
2017-11-21T00:49:19.163Z,1002.44
2017-11-21T00:50:19.155Z,1002.44
2017-11-21T00:51:19.149Z,1002.42
2017-11-21T00:52:19.139Z,1002.49
2017-11-21T00:53:19.128Z,1002.51
2017-11-21T00:54:19.122Z,1002.53
2017-11-21T00:55:19.110Z,1002.54
2017-11-21T00:56:19.108Z,1002.60
2017-11-21T00:57:19.098Z,1002.63
2017-11-21T00:58:19.085Z,1002.65
2017-11-21T00:59:19.077Z,1002.67
2017-11-21T01:00:19.077Z,1002.65
2017-11-21T01:01:19.068Z,1002.68
2017-11-21T01:02:19.057Z,1002.69
2017-11-21T01:03:19.055Z,1002.68
2017-11-21T01:04:19.043Z,1002.70
2017-11-21T01:05:19.029Z,1002.71
2017-11-21T01:06:19.017Z,1002.67
2017-11-21T01:07:19.008Z,1002.72
2017-11-21T01:08:18.998Z,1002.65
2017-11-21T01:09:18.990Z,1002.70
2017-11-21T01:10:18.987Z,1002.70
2017-11-21T01:11:18.971Z,1002.66
2017-11-21T01:12:18.963Z,1002.69
2017-11-21T01:13:18.957Z,1002.67
2017-11-21T01:14:18.944Z,1002.68
2017-11-21T01:15:18.936Z,1002.63
2017-11-21T01:16:18.936Z,1002.72
2017-11-21T01:17:18.923Z,1002.75
2017-11-21T01:18:18.912Z,1002.67
2017-11-21T01:19:18.900Z,1002.72
2017-11-21T01:20:18.895Z,1002.66
2017-11-21T01:21:18.883Z,1002.63
2017-11-21T01:22:18.877Z,1002.75
2017-11-21T01:23:18.877Z,1002.68
2017-11-21T01:24:18.879Z,1002.69
2017-11-21T01:25:18.851Z,1002.75
2017-11-21T01:26:18.841Z,1002.76
2017-11-21T01:27:18.837Z,1002.83
2017-11-21T01:28:18.828Z,1002.78
2017-11-21T01:29:18.814Z,1002.78
2017-11-21T01:30:18.809Z,1002.82
2017-11-21T01:31:18.796Z,1002.79
2017-11-21T01:32:18.788Z,1002.86
2017-11-21T01:33:18.801Z,1002.85
2017-11-21T01:34:18.771Z,1002.92
2017-11-21T01:35:18.764Z,1002.85
2017-11-21T01:36:18.756Z,1002.84
2017-11-21T01:37:18.753Z,1002.85
2017-11-21T01:38:18.736Z,1002.87
2017-11-21T01:39:18.726Z,1002.85
2017-11-21T01:40:18.731Z,1002.83
2017-11-21T01:41:18.720Z,1002.86
2017-11-21T01:42:18.701Z,1002.83
2017-11-21T01:43:18.691Z,1002.87
2017-11-21T01:44:18.682Z,1002.88
2017-11-21T01:45:18.677Z,1002.87
2017-11-21T01:46:18.671Z,1002.88
2017-11-21T01:47:18.656Z,1002.86
2017-11-21T01:48:18.650Z,1002.87
2017-11-21T01:49:18.643Z,1002.88
2017-11-21T01:50:18.633Z,1002.89
2017-11-21T01:51:18.622Z,1002.91
2017-11-21T01:52:18.614Z,1002.95
2017-11-21T01:53:18.606Z,1002.94
2017-11-21T01:54:18.598Z,1002.94
2017-11-21T01:55:18.588Z,1002.93
2017-11-21T01:56:18.584Z,1002.94
2017-11-21T01:57:18.584Z,1002.91
2017-11-21T01:58:18.561Z,1002.91
2017-11-21T01:59:18.558Z,1002.87
2017-11-21T02:00:18.547Z,1002.92
2017-11-21T02:01:18.540Z,1002.89
2017-11-21T02:02:18.534Z,1002.87
2017-11-21T02:03:18.521Z,1002.86
2017-11-21T02:04:18.516Z,1002.88
2017-11-21T02:05:18.503Z,1002.88
2017-11-21T02:06:18.501Z,1002.90
2017-11-21T02:07:18.486Z,1002.90
2017-11-21T02:08:18.479Z,1002.95
2017-11-21T02:09:18.468Z,1002.93
2017-11-21T02:10:18.460Z,1002.97
2017-11-21T02:11:18.450Z,1002.91
2017-11-21T02:12:18.442Z,1002.88
2017-11-21T02:13:18.440Z,1002.89
2017-11-21T02:14:18.430Z,1002.90
2017-11-21T02:15:18.421Z,1002.89
2017-11-21T02:16:18.410Z,1002.89
2017-11-21T02:17:18.422Z,1002.92
2017-11-21T02:18:18.394Z,1002.85
2017-11-21T02:19:18.390Z,1002.84
2017-11-21T02:20:18.382Z,1002.89
2017-11-21T02:21:18.369Z,1002.87
2017-11-21T02:22:18.362Z,1002.89
2017-11-21T02:23:18.348Z,1002.89
2017-11-21T02:24:18.343Z,1002.88
2017-11-21T02:25:18.334Z,1002.89
2017-11-21T02:26:18.324Z,1002.87
2017-11-21T02:27:18.316Z,1002.88
2017-11-21T02:28:18.306Z,1002.82
2017-11-21T02:29:18.313Z,1002.83
2017-11-21T02:30:18.976Z,1002.81
2017-11-21T02:31:18.285Z,1002.84
2017-11-21T02:32:18.294Z,1002.84
2017-11-21T02:33:18.264Z,1002.77
2017-11-21T02:34:18.256Z,1002.86
2017-11-21T02:35:18.253Z,1002.86
2017-11-21T02:36:18.239Z,1002.83
2017-11-21T02:37:18.231Z,1002.83
2017-11-21T02:38:18.226Z,1002.86
2017-11-21T02:39:18.217Z,1002.84
2017-11-21T02:40:18.205Z,1002.81
2017-11-21T02:41:18.198Z,1002.82
2017-11-21T02:42:18.190Z,1002.83
2017-11-21T02:43:18.180Z,1002.87
2017-11-21T02:44:18.173Z,1002.89
2017-11-21T02:45:18.168Z,1002.90
2017-11-21T02:46:18.159Z,1002.87
2017-11-21T02:47:18.147Z,1002.87
2017-11-21T02:48:18.136Z,1002.89
2017-11-21T02:49:18.131Z,1002.90
2017-11-21T02:50:18.123Z,1002.87
2017-11-21T02:51:18.115Z,1002.88
2017-11-21T02:52:45.990Z,1002.92
2017-11-21T02:53:18.096Z,1002.92
2017-11-21T02:54:18.093Z,1002.88
2017-11-21T02:55:18.086Z,1002.90
2017-11-21T02:56:18.070Z,1002.86
2017-11-21T02:57:18.063Z,1002.85
2017-11-21T02:58:18.060Z,1002.86
2017-11-21T02:59:18.043Z,1002.86
2017-11-21T03:00:18.039Z,1002.90
2017-11-21T03:01:18.035Z,1002.89
2017-11-21T03:02:18.020Z,1002.91
2017-11-21T03:03:18.015Z,1002.85
2017-11-21T03:04:18.003Z,1002.90
2017-11-21T03:05:17.999Z,1002.87
2017-11-21T03:06:17.985Z,1002.88
2017-11-21T03:07:17.977Z,1002.87
2017-11-21T03:08:17.969Z,1002.91
2017-11-21T03:09:17.958Z,1002.81
2017-11-21T03:10:17.953Z,1002.86
2017-11-21T03:11:17.942Z,1002.84
2017-11-21T03:12:17.950Z,1002.89
2017-11-21T03:13:17.927Z,1002.92
2017-11-21T03:14:17.922Z,1002.93
2017-11-21T03:15:17.908Z,1002.93
2017-11-21T03:16:17.898Z,1002.94
2017-11-21T03:17:17.894Z,1002.99
2017-11-21T03:18:17.906Z,1002.98
2017-11-21T03:19:17.877Z,1002.99
2017-11-21T03:20:17.865Z,1003.00
2017-11-21T03:21:17.858Z,1003.01
2017-11-21T03:22:17.850Z,1003.00
2017-11-21T03:23:17.850Z,1002.96
2017-11-21T03:24:17.838Z,1003.00
2017-11-21T03:25:17.826Z,1002.99
2017-11-21T03:26:17.816Z,1003.03
2017-11-21T03:27:17.806Z,1002.99
2017-11-21T03:28:17.800Z,1002.96
2017-11-21T03:29:17.789Z,1002.97
2017-11-21T03:30:17.784Z,1002.98
2017-11-21T03:31:17.786Z,1002.98
2017-11-21T03:32:17.776Z,1002.98
2017-11-21T03:33:17.765Z,1003.00
2017-11-21T03:34:17.750Z,1002.98
2017-11-21T03:35:17.744Z,1003.01
2017-11-21T03:36:17.730Z,1002.98
2017-11-21T03:37:17.725Z,1002.96
2017-11-21T03:38:17.715Z,1002.97
2017-11-21T03:39:17.717Z,1002.91
2017-11-21T03:40:17.697Z,1002.96
2017-11-21T03:41:17.688Z,1002.92
2017-11-21T03:42:17.679Z,1002.97
2017-11-21T03:43:17.673Z,1002.90
2017-11-21T03:44:17.664Z,1002.97
2017-11-21T03:45:17.657Z,1002.92
2017-11-21T03:46:17.656Z,1002.96
2017-11-21T03:47:17.638Z,1002.94
2017-11-21T03:48:17.641Z,1002.96
2017-11-21T03:49:17.626Z,1003.01
2017-11-21T03:50:17.613Z,1003.03
2017-11-21T03:51:17.604Z,1003.03
2017-11-21T03:52:17.597Z,1002.96
2017-11-21T03:53:17.590Z,1003.02
2017-11-21T03:54:17.580Z,1003.06
2017-11-21T03:55:17.585Z,1003.05
2017-11-21T03:56:17.562Z,1003.07
2017-11-21T03:57:17.553Z,1003.06
2017-11-21T03:58:17.551Z,1003.05
2017-11-21T03:59:17.548Z,1003.06
2017-11-21T04:00:17.529Z,1003.01
2017-11-21T04:01:17.522Z,1003.02
2017-11-21T04:02:17.514Z,1003.06
2017-11-21T04:03:17.505Z,1003.11
2017-11-21T04:04:17.497Z,1003.12
2017-11-21T04:05:17.504Z,1003.12
2017-11-21T04:06:17.485Z,1003.09
2017-11-21T04:07:17.471Z,1003.08
2017-11-21T04:08:17.464Z,1003.12
2017-11-21T04:09:17.459Z,1003.14
2017-11-21T04:10:17.445Z,1003.15
2017-11-21T04:11:17.438Z,1003.13
2017-11-21T04:12:17.433Z,1003.16
2017-11-21T04:13:17.431Z,1003.11
2017-11-21T04:14:17.412Z,1003.18
2017-11-21T04:15:17.402Z,1003.17
2017-11-21T04:16:17.397Z,1003.19
2017-11-21T04:17:17.387Z,1003.18
2017-11-21T04:18:17.380Z,1003.17
2017-11-21T04:19:17.389Z,1003.17
2017-11-21T04:20:17.372Z,1003.16
2017-11-21T04:21:17.358Z,1003.17
2017-11-21T04:22:17.347Z,1003.19
2017-11-21T04:23:17.340Z,1003.16
2017-11-21T04:24:17.331Z,1003.20
2017-11-21T04:25:17.325Z,1003.19
2017-11-21T04:26:17.321Z,1003.16
2017-11-21T04:27:17.331Z,1003.13
2017-11-21T04:28:17.296Z,1003.19
2017-11-21T04:29:17.291Z,1003.19
2017-11-21T04:30:17.291Z,1003.20
2017-11-21T04:31:17.276Z,1003.20
2017-11-21T04:32:17.277Z,1003.22
2017-11-21T04:33:17.282Z,1003.24
2017-11-21T04:34:17.265Z,1003.22
2017-11-21T04:35:17.238Z,1003.24
2017-11-21T04:36:17.232Z,1003.21
2017-11-21T04:37:17.226Z,1003.25
2017-11-21T04:38:17.220Z,1003.19
2017-11-21T04:39:17.207Z,1003.17
2017-11-21T04:40:17.199Z,1003.17
2017-11-21T04:41:17.190Z,1003.17
2017-11-21T04:42:17.179Z,1003.15
2017-11-21T04:43:17.173Z,1003.10
2017-11-21T04:44:17.165Z,1003.09
2017-11-21T04:45:17.153Z,1003.11
2017-11-21T04:46:17.145Z,1003.09
2017-11-21T04:47:17.149Z,1003.11
2017-11-21T04:48:17.129Z,1003.09
2017-11-21T04:49:17.124Z,1003.06
2017-11-21T04:50:17.110Z,1003.06
2017-11-21T04:51:17.104Z,1003.05
2017-11-21T04:52:17.096Z,1003.07
2017-11-21T04:53:17.091Z,1003.01
2017-11-21T04:54:17.103Z,1003.06
2017-11-21T04:55:17.072Z,1003.01
2017-11-21T04:56:17.071Z,1003.01
2017-11-21T04:57:17.055Z,1003.01
2017-11-21T04:58:17.046Z,1003.03
2017-11-21T04:59:17.035Z,1003.02
2017-11-21T05:00:17.032Z,1003.06
2017-11-21T05:01:17.033Z,1003.06
2017-11-21T05:02:17.014Z,1003.06
2017-11-21T05:03:17.006Z,1003.08
2017-11-21T05:04:16.997Z,1003.09
2017-11-21T05:05:16.987Z,1003.09
2017-11-21T05:06:16.984Z,1003.08
2017-11-21T05:07:16.987Z,1003.09
2017-11-21T05:08:16.960Z,1003.13
2017-11-21T05:09:16.956Z,1003.16
2017-11-21T05:10:16.972Z,1003.15
2017-11-21T05:11:16.941Z,1003.16
2017-11-21T05:12:16.926Z,1003.18
2017-11-21T05:13:16.922Z,1003.17
2017-11-21T05:14:16.910Z,1003.19
2017-11-21T05:15:16.899Z,1003.15
2017-11-21T05:16:16.889Z,1003.20
2017-11-21T05:17:16.886Z,1003.18
2017-11-21T05:18:16.875Z,1003.23
2017-11-21T05:19:16.865Z,1003.25
2017-11-21T05:20:16.861Z,1003.25
2017-11-21T05:21:16.862Z,1003.24
2017-11-21T05:22:16.841Z,1003.23
2017-11-21T05:23:16.835Z,1003.19
2017-11-21T05:24:16.826Z,1003.24
2017-11-21T05:25:16.815Z,1003.26
2017-11-21T05:26:16.814Z,1003.26
2017-11-21T05:27:16.801Z,1003.21
2017-11-21T05:28:16.806Z,1003.24
2017-11-21T05:29:16.788Z,1003.22
2017-11-21T05:30:16.776Z,1003.26
2017-11-21T05:31:16.766Z,1003.27
2017-11-21T05:32:16.758Z,1003.25
2017-11-21T05:33:16.751Z,1003.31
2017-11-21T05:34:16.761Z,1003.33
2017-11-21T05:35:16.733Z,1003.30
2017-11-21T05:36:16.729Z,1003.30
2017-11-21T05:37:16.717Z,1003.30
2017-11-21T05:38:16.709Z,1003.31
2017-11-21T05:39:16.701Z,1003.30
2017-11-21T05:40:16.691Z,1003.32
2017-11-21T05:41:16.702Z,1003.26
2017-11-21T05:42:16.674Z,1003.28
2017-11-21T05:43:16.668Z,1003.16
2017-11-21T05:44:16.656Z,1002.91
2017-11-21T05:45:16.651Z,1002.75
2017-11-21T05:46:16.656Z,1002.68
2017-11-21T05:47:16.640Z,1002.65
2017-11-21T05:48:16.637Z,1002.64
2017-11-21T05:49:16.620Z,1002.62
2017-11-21T05:50:16.610Z,1003.17
2017-11-21T05:51:16.598Z,1003.18
2017-11-21T05:52:16.598Z,1003.17
2017-11-21T05:53:16.589Z,1003.20
2017-11-21T05:54:16.572Z,1003.25
2017-11-21T05:55:16.567Z,1003.22
2017-11-21T05:56:16.554Z,1003.23
2017-11-21T05:57:16.549Z,1003.25
2017-11-21T05:58:16.560Z,1003.23
2017-11-21T05:59:16.530Z,1003.21
2017-11-21T06:00:16.524Z,1003.21
2017-11-21T06:01:16.530Z,1003.21
2017-11-21T06:02:16.525Z,1003.20
2017-11-21T06:03:16.495Z,1003.22
2017-11-21T06:04:16.488Z,1003.20
2017-11-21T06:05:16.485Z,1003.25
2017-11-21T06:06:16.472Z,1003.27
2017-11-21T06:07:16.469Z,1003.28
2017-11-21T06:08:16.456Z,1003.28
2017-11-21T06:09:16.449Z,1003.26
2017-11-21T06:10:16.444Z,1003.25
2017-11-21T06:11:16.432Z,1003.18
2017-11-21T06:12:16.426Z,1003.24
2017-11-21T06:13:16.416Z,1003.18
2017-11-21T06:14:16.411Z,1003.22
2017-11-21T06:15:16.408Z,1003.19
2017-11-21T06:16:16.386Z,1003.24
2017-11-21T06:17:16.376Z,1003.16
2017-11-21T06:18:16.367Z,1003.17
2017-11-21T06:19:16.360Z,1003.21
2017-11-21T06:20:16.358Z,1003.19
2017-11-21T06:21:16.353Z,1003.23
2017-11-21T06:22:16.336Z,1003.28
2017-11-21T06:23:16.324Z,1003.26
2017-11-21T06:24:16.318Z,1003.22
2017-11-21T06:25:16.309Z,1003.22
2017-11-21T06:26:16.303Z,1003.22
2017-11-21T06:27:16.291Z,1003.21
2017-11-21T06:28:16.290Z,1003.20
2017-11-21T06:29:16.275Z,1003.19
2017-11-21T06:30:16.268Z,1003.20
2017-11-21T06:31:16.259Z,1003.20
2017-11-21T06:32:16.248Z,1003.27
2017-11-21T06:33:16.252Z,1003.26
2017-11-21T06:34:16.232Z,1003.32
2017-11-21T06:35:16.222Z,1003.33
2017-11-21T06:36:16.215Z,1003.31
2017-11-21T06:37:16.207Z,1003.28
2017-11-21T06:38:16.198Z,1003.28
2017-11-21T06:39:16.188Z,1003.25
2017-11-21T06:40:16.184Z,1003.28
2017-11-21T06:41:16.176Z,1003.22
2017-11-21T06:42:16.168Z,1003.22
2017-11-21T06:43:16.160Z,1003.24
2017-11-21T06:44:16.150Z,1003.26
2017-11-21T06:45:16.142Z,1003.31
2017-11-21T06:46:16.135Z,1003.26
2017-11-21T06:47:16.127Z,1003.31
2017-11-21T06:48:16.121Z,1003.34
2017-11-21T06:49:16.110Z,1003.34
2017-11-21T06:50:16.107Z,1003.38
2017-11-21T06:51:16.093Z,1003.39
2017-11-21T06:52:16.083Z,1003.43
2017-11-21T06:53:16.075Z,1003.43
2017-11-21T06:54:16.066Z,1003.40
2017-11-21T06:55:16.058Z,1003.36
2017-11-21T06:56:16.058Z,1003.38
2017-11-21T06:57:16.040Z,1003.37
2017-11-21T06:58:16.032Z,1003.37
2017-11-21T06:59:16.022Z,1003.42
2017-11-21T07:00:16.015Z,1003.43
2017-11-21T07:01:16.008Z,1003.41
2017-11-21T07:02:15.997Z,1003.42
2017-11-21T07:03:15.989Z,1003.42
2017-11-21T07:04:15.980Z,1003.46
2017-11-21T07:05:15.979Z,1003.50
2017-11-21T07:06:15.967Z,1003.46
2017-11-21T07:07:15.956Z,1003.50
2017-11-21T07:08:15.953Z,1003.48
2017-11-21T07:09:15.942Z,1003.48
2017-11-21T07:10:15.931Z,1003.51
2017-11-21T07:11:15.925Z,1003.51
2017-11-21T07:12:15.914Z,1003.52
2017-11-21T07:13:15.907Z,1003.53
2017-11-21T07:14:15.899Z,1003.53
2017-11-21T07:15:15.889Z,1003.53
2017-11-21T07:16:15.883Z,1003.53
2017-11-21T07:17:15.872Z,1003.54
2017-11-21T07:18:15.866Z,1003.55
2017-11-21T07:19:15.856Z,1003.57
2017-11-21T07:20:15.848Z,1003.57
2017-11-21T07:21:15.841Z,1003.56
2017-11-21T07:22:15.831Z,1003.57
2017-11-21T07:23:15.830Z,1003.54
2017-11-21T07:24:15.815Z,1003.57
2017-11-21T07:25:15.807Z,1003.57
2017-11-21T07:26:15.807Z,1003.54
2017-11-21T07:27:15.790Z,1003.54
2017-11-21T07:28:15.783Z,1003.54
2017-11-21T07:29:15.780Z,1003.52
2017-11-21T07:30:15.778Z,1003.50
2017-11-21T07:31:15.757Z,1003.55
2017-11-21T07:32:15.748Z,1003.55
2017-11-21T07:33:15.741Z,1003.52
2017-11-21T07:34:15.739Z,1003.51
2017-11-21T07:35:15.732Z,1003.53
2017-11-21T07:36:15.716Z,1003.56
2017-11-21T07:37:15.713Z,1003.59
2017-11-21T07:38:15.701Z,1003.56
2017-11-21T07:39:15.705Z,1003.59
2017-11-21T07:40:15.689Z,1003.58
2017-11-21T07:41:15.675Z,1003.58
2017-11-21T07:42:15.667Z,1003.62
2017-11-21T07:43:15.661Z,1003.62
2017-11-21T07:44:15.654Z,1003.60
2017-11-21T07:45:15.642Z,1003.59
2017-11-21T07:46:15.634Z,1003.58
2017-11-21T07:47:15.636Z,1003.60
2017-11-21T07:48:15.617Z,1003.59
2017-11-21T07:49:15.609Z,1003.61
2017-11-21T07:50:15.603Z,1003.63
2017-11-21T07:51:15.602Z,1003.59
2017-11-21T07:52:15.583Z,1003.59
2017-11-21T07:53:15.578Z,1003.61
2017-11-21T07:54:15.569Z,1003.59
2017-11-21T07:55:15.561Z,1003.60
2017-11-21T07:56:15.553Z,1003.65
2017-11-21T07:57:15.557Z,1003.61
2017-11-21T07:58:15.537Z,1003.61
2017-11-21T07:59:15.526Z,1003.60
2017-11-21T08:00:15.516Z,1003.62
2017-11-21T08:01:15.507Z,1003.63
2017-11-21T08:02:15.508Z,1003.64
2017-11-21T08:03:15.491Z,1003.61
2017-11-21T08:04:15.482Z,1003.65
2017-11-21T08:05:15.474Z,1003.68
2017-11-21T08:06:15.466Z,1003.68
2017-11-21T08:07:15.475Z,1003.67
2017-11-21T08:08:15.451Z,1003.67
2017-11-21T08:09:15.445Z,1003.67
2017-11-21T08:10:15.432Z,1003.70
2017-11-21T08:11:15.422Z,1003.69
2017-11-21T08:12:15.435Z,1003.72
2017-11-21T08:13:15.407Z,1003.68
2017-11-21T08:14:15.396Z,1003.67
2017-11-21T08:15:15.397Z,1003.68
2017-11-21T08:16:15.379Z,1003.64
2017-11-21T08:17:15.375Z,1003.66
2017-11-21T08:18:15.368Z,1003.66
2017-11-21T08:19:15.360Z,1003.66
2017-11-21T08:20:15.352Z,1003.66
2017-11-21T08:21:15.340Z,1003.65
2017-11-21T08:22:15.350Z,1003.66
2017-11-21T08:23:15.321Z,1003.66
2017-11-21T08:24:15.313Z,1003.66
2017-11-21T08:25:15.313Z,1003.64
2017-11-21T08:26:15.299Z,1003.64
2017-11-21T08:27:15.288Z,1003.58
2017-11-21T08:28:15.284Z,1003.65
2017-11-21T08:29:15.274Z,1003.63
2017-11-21T08:30:15.264Z,1003.67
2017-11-21T08:31:15.258Z,1003.68
2017-11-21T08:32:15.276Z,1003.64
2017-11-21T08:33:15.247Z,1003.67
2017-11-21T08:34:15.232Z,1003.68
2017-11-21T08:35:15.222Z,1003.70
2017-11-21T08:36:15.213Z,1003.72
2017-11-21T08:37:15.206Z,1003.73
2017-11-21T08:38:15.201Z,1003.67
2017-11-21T08:39:15.187Z,1003.71
2017-11-21T08:40:15.181Z,1003.66
2017-11-21T08:41:15.175Z,1003.76
2017-11-21T08:42:15.163Z,1003.73
2017-11-21T08:43:15.155Z,1003.73
2017-11-21T08:44:15.146Z,1003.72
2017-11-21T08:45:15.153Z,1003.79
2017-11-21T08:46:15.132Z,1003.76
2017-11-21T08:47:15.122Z,1003.80
2017-11-21T08:48:15.123Z,1003.75
2017-11-21T08:49:15.104Z,1003.78
2017-11-21T08:50:15.100Z,1003.79
2017-11-21T08:51:15.089Z,1003.83
2017-11-21T08:52:15.083Z,1003.86
2017-11-21T08:53:15.073Z,1003.84
2017-11-21T08:54:15.064Z,1003.87
2017-11-21T08:55:15.061Z,1003.86
2017-11-21T08:56:15.046Z,1003.87
2017-11-21T08:57:15.039Z,1003.92
2017-11-21T08:58:15.036Z,1003.88
2017-11-21T08:59:15.029Z,1003.88
2017-11-21T09:00:15.014Z,1003.87
2017-11-21T09:01:15.005Z,1003.91
2017-11-21T09:02:14.999Z,1003.87
2017-11-21T09:03:14.988Z,1003.86
2017-11-21T09:04:14.979Z,1003.84
2017-11-21T09:05:14.972Z,1003.87
2017-11-21T09:06:14.965Z,1003.89
2017-11-21T09:07:14.955Z,1003.88
2017-11-21T09:08:14.948Z,1003.90
2017-11-21T09:09:14.939Z,1003.88
2017-11-21T09:10:14.931Z,1003.93
2017-11-21T09:11:14.921Z,1003.98
2017-11-21T09:12:14.913Z,1003.96
2017-11-21T09:13:14.917Z,1003.94
2017-11-21T09:14:14.898Z,1003.94
2017-11-21T09:15:14.891Z,1003.94
2017-11-21T09:16:14.880Z,1003.97
2017-11-21T09:17:14.872Z,1003.89
2017-11-21T09:18:14.866Z,1003.93
2017-11-21T09:19:14.871Z,1003.89
2017-11-21T09:20:14.853Z,1003.95
2017-11-21T09:21:14.839Z,1003.96
2017-11-21T09:22:14.838Z,1003.95
2017-11-21T09:23:14.823Z,1003.97
2017-11-21T09:24:14.819Z,1004.01
2017-11-21T09:25:14.806Z,1003.98
2017-11-21T09:26:14.801Z,1003.93
2017-11-21T09:27:14.789Z,1003.93
2017-11-21T09:28:14.782Z,1003.94
2017-11-21T09:29:14.776Z,1003.87
2017-11-21T09:30:14.766Z,1003.91
2017-11-21T09:31:14.756Z,1003.98
2017-11-21T09:32:14.747Z,1003.98
2017-11-21T09:33:14.741Z,1003.91
2017-11-21T09:34:14.732Z,1003.93
2017-11-21T09:35:14.726Z,1003.94
2017-11-21T09:36:14.724Z,1003.90
2017-11-21T09:37:14.711Z,1003.92
2017-11-21T09:38:14.704Z,1003.85
2017-11-21T09:39:14.692Z,1003.82
2017-11-21T09:40:14.688Z,1003.81
2017-11-21T09:41:14.677Z,1003.82
2017-11-21T09:42:14.667Z,1003.84
2017-11-21T09:43:14.661Z,1003.85
2017-11-21T09:44:14.649Z,1003.84
2017-11-21T09:45:14.643Z,1003.80
2017-11-21T09:46:14.639Z,1003.79
2017-11-21T09:47:14.637Z,1003.78
2017-11-21T09:48:14.617Z,1003.80
2017-11-21T09:49:14.609Z,1003.79
2017-11-21T09:50:14.603Z,1003.73
2017-11-21T09:51:14.608Z,1003.77
2017-11-21T09:52:14.592Z,1003.74
2017-11-21T09:53:14.579Z,1003.76
2017-11-21T09:54:14.585Z,1003.72
2017-11-21T09:55:14.648Z,1003.76
2017-11-21T09:56:14.551Z,1003.71
2017-11-21T09:57:14.553Z,1003.73
2017-11-21T09:58:14.538Z,1003.74
2017-11-21T09:59:14.532Z,1003.74
2017-11-21T10:00:14.519Z,1003.75
2017-11-21T10:01:14.519Z,1003.71
2017-11-21T10:02:14.506Z,1003.69
2017-11-21T10:03:14.495Z,1003.71
2017-11-21T10:04:14.489Z,1003.70
2017-11-21T10:05:14.481Z,1003.71
2017-11-21T10:06:14.473Z,1003.70
2017-11-21T10:07:14.465Z,1003.69
2017-11-21T10:08:14.463Z,1003.69
2017-11-21T10:09:14.446Z,1003.65
2017-11-21T10:10:14.441Z,1003.70
2017-11-21T10:11:14.438Z,1003.65
2017-11-21T10:12:14.431Z,1003.61
2017-11-21T10:13:14.417Z,1003.63
2017-11-21T10:14:14.407Z,1003.63
2017-11-21T10:15:14.408Z,1003.66
2017-11-21T10:16:14.393Z,1003.63
2017-11-21T10:17:14.496Z,1003.67
2017-11-21T10:18:14.377Z,1003.65
2017-11-21T10:19:14.367Z,1003.65
2017-11-21T10:20:14.362Z,1003.68
2017-11-21T10:21:14.364Z,1003.66
2017-11-21T10:22:14.357Z,1003.67
2017-11-21T10:23:14.340Z,1003.65
2017-11-21T10:24:14.331Z,1003.67
2017-11-21T10:25:14.321Z,1003.67
2017-11-21T10:26:14.324Z,1003.62
2017-11-21T10:27:14.334Z,1003.60
2017-11-21T10:28:14.297Z,1003.59
2017-11-21T10:29:14.299Z,1003.68
2017-11-21T10:30:14.284Z,1003.62
2017-11-21T10:31:14.275Z,1003.65
2017-11-21T10:32:14.272Z,1003.57
2017-11-21T10:33:14.261Z,1003.59
2017-11-21T10:34:14.252Z,1003.64
2017-11-21T10:35:14.247Z,1003.62
2017-11-21T10:36:14.249Z,1003.62
2017-11-21T10:37:14.234Z,1003.59
2017-11-21T10:38:14.255Z,1003.64
2017-11-21T10:39:14.224Z,1003.58
2017-11-21T10:40:14.210Z,1003.59
2017-11-21T10:41:14.196Z,1003.56
2017-11-21T10:42:14.195Z,1003.55
2017-11-21T10:43:14.203Z,1003.61
2017-11-21T10:44:14.173Z,1003.58
2017-11-21T10:45:14.172Z,1003.54
2017-11-21T10:46:14.165Z,1003.44
2017-11-21T10:47:14.149Z,1003.50
2017-11-21T10:48:14.141Z,1003.45
2017-11-21T10:49:14.131Z,1003.52
2017-11-21T10:50:14.128Z,1003.51
2017-11-21T10:51:14.114Z,1003.48
2017-11-21T10:52:14.108Z,1003.47
2017-11-21T10:53:14.112Z,1003.50
2017-11-21T10:54:14.094Z,1003.50
2017-11-21T10:55:14.084Z,1003.46
2017-11-21T10:56:14.076Z,1003.45
2017-11-21T10:57:14.080Z,1003.45
2017-11-21T10:58:14.059Z,1003.42
2017-11-21T10:59:14.050Z,1003.46
2017-11-21T11:00:14.043Z,1003.45
2017-11-21T11:01:14.037Z,1003.46
2017-11-21T11:02:14.031Z,1003.44
2017-11-21T11:03:14.019Z,1003.43
2017-11-21T11:04:14.017Z,1003.41
2017-11-21T11:05:14.007Z,1003.39
2017-11-21T11:06:13.996Z,1003.40
2017-11-21T11:07:13.989Z,1003.40
2017-11-21T11:08:13.983Z,1003.37
2017-11-21T11:09:13.987Z,1003.40
2017-11-21T11:10:13.966Z,1003.34
2017-11-21T11:11:13.959Z,1003.31
2017-11-21T11:12:13.953Z,1003.35
2017-11-21T11:13:13.948Z,1003.33
2017-11-21T11:14:13.937Z,1003.29
2017-11-21T11:15:13.938Z,1003.31
2017-11-21T11:16:13.916Z,1003.29
2017-11-21T11:17:13.909Z,1003.29
2017-11-21T11:18:13.918Z,1003.34
2017-11-21T11:19:13.894Z,1003.27
2017-11-21T11:20:13.887Z,1003.30
2017-11-21T11:21:13.883Z,1003.25
2017-11-21T11:22:13.870Z,1003.24
2017-11-21T11:23:13.874Z,1003.27
2017-11-21T11:24:13.860Z,1003.26
2017-11-21T11:25:13.856Z,1003.24
2017-11-21T11:26:13.838Z,1003.23
2017-11-21T11:27:13.838Z,1003.27
2017-11-21T11:28:13.826Z,1003.24
2017-11-21T11:29:13.814Z,1003.19
2017-11-21T11:30:13.810Z,1003.20
2017-11-21T11:31:13.800Z,1003.19
2017-11-21T11:32:13.793Z,1003.16
2017-11-21T11:33:13.785Z,1003.15
2017-11-21T11:34:13.776Z,1003.17
2017-11-21T11:35:13.767Z,1003.11
2017-11-21T11:36:13.760Z,1003.16
2017-11-21T11:37:13.755Z,1003.03
2017-11-21T11:38:13.744Z,1003.08
2017-11-21T11:39:13.739Z,1003.08
2017-11-21T11:40:13.729Z,1003.03
2017-11-21T11:41:13.720Z,1003.03
2017-11-21T11:42:13.715Z,1003.01
2017-11-21T11:43:13.705Z,1002.99
2017-11-21T11:44:13.700Z,1003.00
2017-11-21T11:45:13.689Z,1003.00
2017-11-21T11:46:13.683Z,1002.99
2017-11-21T11:47:13.673Z,1002.97
2017-11-21T11:48:13.665Z,1002.95
2017-11-21T11:49:13.658Z,1002.95
2017-11-21T11:50:13.650Z,1002.95
2017-11-21T11:51:13.642Z,1002.94
2017-11-21T11:52:13.666Z,1002.90
2017-11-21T11:53:13.626Z,1002.96
2017-11-21T11:54:13.619Z,1002.94
2017-11-21T11:55:13.610Z,1002.95
2017-11-21T11:56:13.601Z,1002.90
2017-11-21T11:57:13.604Z,1002.93
2017-11-21T11:58:13.594Z,1002.85
2017-11-21T11:59:13.577Z,1002.85
2017-11-21T12:00:13.572Z,1002.83
2017-11-21T12:01:13.567Z,1002.84
2017-11-21T12:02:13.556Z,1002.89
2017-11-21T12:03:13.549Z,1002.86
2017-11-21T12:04:13.541Z,1002.83
2017-11-21T12:05:13.532Z,1002.80